Time;durP1;ratioP1;P1;durP2;ratioP2;P2;SDS_P1;SDS_P2;PMS_P1;PMS_P2;Temp;Humidity;BMP_temperature;BMP_pressure;BME280_temperature;BME280_humidity;BME280_pressure;Samples;Min_cycle;Max_cycle;Signal;HPM_P1;HPM_P2
2021/04/02 12:58:21;;;;;;;9.05;5.13;;;24.00;57.00;;;;;;5132939;27;20325;-79
2021/04/02 13:00:46;;;;;;;6.60;5.40;;;22.00;53.30;;;;;;5133669;28;20507;-80
2021/04/02 13:03:12;;;;;;;9.27;5.90;;;22.30;52.60;;;;;;5133436;28;20027;-80
2021/04/02 13:05:39;;;;;;;7.88;5.25;;;21.70;51.10;;;;;;5133771;28;20051;-80
2021/04/02 13:08:06;;;;;;;6.68;4.68;;;21.60;52.40;;;;;;5132399;28;20077;-80
2021/04/02 13:10:32;;;;;;;5.63;5.00;;;21.40;52.10;;;;;;5133042;28;20117;-79
2021/04/02 13:12:57;;;;;;;5.70;4.60;;;21.90;51.30;;;;;;5118308;28;20024;-80
2021/04/02 13:15:24;;;;;;;7.70;5.35;;;22.60;50.00;;;;;;5132388;28;20035;-79
2021/04/02 13:17:50;;;;;;;8.63;5.57;;;22.20;51.20;;;;;;5127565;27;20032;-80
2021/04/02 13:20:20;;;;;;;5.97;4.85;;;21.80;50.80;;;;;;5112891;28;20627;-81
2021/04/02 13:22:46;;;;;;;5.72;4.93;;;22.10;51.10;;;;;;5111820;28;20073;-79
2021/04/02 13:25:12;;;;;;;5.55;4.93;;;20.50;52.20;;;;;;5114032;28;20024;-80
2021/04/02 13:27:38;;;;;;;6.82;5.05;;;18.90;51.80;;;;;;5113837;28;20110;-80
2021/04/02 13:30:09;;;;;;;6.20;4.60;;;21.50;52.40;;;;;;5116347;28;20032;-79
2021/04/02 13:32:42;;;;;;;5.47;4.70;;;22.20;50.90;;;;;;5097283;28;20028;-80
2021/04/02 13:35:09;;;;;;;5.60;4.15;;;22.20;51.20;;;;;;5113654;28;20028;-79
2021/04/02 13:37:35;;;;;;;6.15;4.88;;;23.10;50.00;;;;;;5114264;28;20035;-79
2021/04/02 13:40:02;;;;;;;5.18;4.55;;;23.10;49.60;;;;;;5112186;28;20020;-80
2021/04/02 13:42:28;;;;;;;6.10;4.72;;;22.60;50.70;;;;;;5109238;28;20496;-80
2021/04/02 13:44:53;;;;;;;8.15;4.80;;;22.90;50.40;;;;;;5110051;28;20023;-80
2021/04/02 13:47:19;;;;;;;8.18;4.45;;;22.20;50.90;;;;;;5110514;28;20107;-81
2021/04/02 13:49:45;;;;;;;5.95;4.68;;;21.90;51.70;;;;;;5109262;28;20051;-80
2021/04/02 13:52:10;;;;;;;6.60;4.75;;;21.80;51.60;;;;;;5092571;28;20062;-80
2021/04/02 13:54:36;;;;;;;10.20;4.30;;;21.50;51.60;;;;;;5110861;28;20515;-80
2021/04/02 13:57:02;;;;;;;7.88;5.45;;;20.80;53.50;;;;;;5110115;28;20047;-80
2021/04/02 13:59:27;;;;;;;5.47;4.03;;;22.00;51.40;;;;;;5110776;28;20031;-79
2021/04/02 14:01:53;;;;;;;7.38;4.38;;;22.30;51.10;;;;;;5110884;28;20032;-80
2021/04/02 14:04:19;;;;;;;5.85;4.70;;;22.40;50.30;;;;;;5092989;28;20028;-80
2021/04/02 14:06:44;;;;;;;5.28;4.63;;;23.40;48.80;;;;;;5111920;28;20031;-80
2021/04/02 14:09:10;;;;;;;4.95;4.28;;;22.20;48.80;;;;;;5082595;28;20032;-80
2021/04/02 14:11:35;;;;;;;4.13;3.72;;;22.20;51.30;;;;;;5096064;28;20075;-79
2021/04/02 14:14:01;;;;;;;5.18;4.20;;;23.00;50.20;;;;;;5098184;28;20546;-80
2021/04/02 14:16:27;;;;;;;4.82;3.90;;;23.20;48.60;;;;;;5117714;28;20038;-79
2021/04/02 14:18:52;;;;;;;6.07;4.13;;;22.80;50.00;;;;;;5098771;28;20595;-80
2021/04/02 14:21:18;;;;;;;6.57;4.30;;;22.50;50.20;;;;;;5079004;28;20027;-81
2021/04/02 14:23:44;;;;;;;6.13;4.05;;;22.90;49.00;;;;;;5095059;28;20480;-79
2021/04/02 14:26:09;;;;;;;6.43;4.43;;;22.70;50.10;;;;;;5097370;28;20028;-80
2021/04/02 14:28:35;;;;;;;6.78;4.25;;;23.20;49.20;;;;;;5097101;28;20418;-80
2021/04/02 14:31:01;;;;;;;8.32;4.22;;;22.50;49.00;;;;;;5095074;28;20096;-80
2021/04/02 14:33:26;;;;;;;5.13;4.47;;;22.70;50.60;;;;;;5096152;28;20020;-82
2021/04/02 14:35:52;;;;;;;5.80;4.63;;;22.60;50.40;;;;;;5096415;28;20385;-80
2021/04/02 14:38:17;;;;;;;6.28;5.20;;;21.10;51.70;;;;;;5096401;28;20032;-80
2021/04/02 14:40:45;;;;;;;8.65;5.30;;;20.90;52.40;;;;;;5078266;28;20496;-80
2021/04/02 14:43:12;;;;;;;9.23;4.35;;;20.10;53.70;;;;;;5094693;28;20043;-78
2021/04/02 14:45:38;;;;;;;6.65;4.13;;;20.80;53.90;;;;;;5096191;28;20023;-79
2021/04/02 14:48:05;;;;;;;6.10;4.22;;;21.60;52.60;;;;;;5107622;28;20040;-79
2021/04/02 14:50:34;;;;;;;9.60;4.80;;;22.90;50.00;;;;;;5095601;28;20035;-79
2021/04/02 14:53:01;;;;;;;7.90;4.75;;;22.40;50.00;;;;;;5095040;28;20055;-80
2021/04/02 14:55:27;;;;;;;7.97;4.03;;;22.30;50.10;;;;;;5096753;28;20021;-79
2021/04/02 14:57:53;;;;;;;5.53;4.57;;;22.00;51.40;;;;;;5078911;28;20032;-79
2021/04/02 15:00:22;;;;;;;7.65;4.63;;;22.10;51.70;;;;;;5094646;28;20024;-79
2021/04/02 15:02:49;;;;;;;6.13;4.60;;;21.40;51.70;;;;;;5094609;28;20116;-79
2021/04/02 15:05:17;;;;;;;8.68;5.00;;;20.60;53.80;;;;;;5096199;28;20020;-79
2021/04/02 15:07:43;;;;;;;7.18;4.90;;;21.00;53.40;;;;;;5095453;28;20035;-79
2021/04/02 15:10:11;;;;;;;5.53;4.35;;;21.30;52.30;;;;;;5096265;28;20025;-80
2021/04/02 15:12:36;;;;;;;6.70;4.07;;;21.30;52.50;;;;;;5096147;28;20032;-79
2021/04/02 15:15:04;;;;;;;6.63;4.88;;;20.90;52.40;;;;;;5099295;28;20031;-79
2021/04/02 15:17:29;;;;;;;6.68;5.10;;;21.20;51.60;;;;;;5097521;28;20641;-79
2021/04/02 15:19:55;;;;;;;5.65;4.90;;;20.60;52.40;;;;;;5096269;28;20020;-79
2021/04/02 15:22:21;;;;;;;6.72;4.95;;;20.60;52.90;;;;;;5098432;28;20066;-78
2021/04/02 15:24:47;;;;;;;5.43;4.70;;;20.10;53.00;;;;;;5098346;28;20027;-79
2021/04/02 15:27:12;;;;;;;6.13;4.40;;;20.20;53.60;;;;;;5113458;28;20058;-80
2021/04/02 15:29:39;;;;;;;6.43;4.25;;;19.90;54.10;;;;;;5114912;28;20034;-80
2021/04/02 15:32:06;;;;;;;4.82;4.22;;;19.30;55.50;;;;;;5108727;28;20112;-79
2021/04/02 15:34:32;;;;;;;8.38;4.68;;;20.40;53.90;;;;;;5079256;28;20031;-79
2021/04/02 15:36:58;;;;;;;6.32;4.72;;;20.80;53.20;;;;;;5098384;28;20076;-79
2021/04/02 15:39:24;;;;;;;4.97;4.22;;;20.20;53.10;;;;;;5115282;28;20097;-80
2021/04/02 15:41:50;;;;;;;7.22;4.68;;;20.00;53.70;;;;;;5115936;28;20624;-79
2021/04/02 15:44:15;;;;;;;6.32;4.03;;;19.70;54.30;;;;;;5116621;28;20028;-79
2021/04/02 15:46:41;;;;;;;8.73;4.43;;;19.70;54.30;;;;;;5114399;28;20050;-80
2021/04/02 15:49:07;;;;;;;4.75;3.65;;;19.70;53.80;;;;;;5099130;22;20044;-76
2021/04/02 15:51:32;;;;;;;7.78;3.90;;;19.20;55.30;;;;;;5069622;28;20028;-77
2021/04/02 15:53:58;;;;;;;5.15;4.10;;;19.40;54.60;;;;;;5085830;28;20024;-77
2021/04/02 15:56:24;;;;;;;6.07;4.15;;;19.00;54.70;;;;;;5073828;28;20033;-77
2021/04/02 15:58:49;;;;;;;4.55;3.58;;;19.90;53.70;;;;;;5071465;28;20040;-77
2021/04/02 16:01:16;;;;;;;5.18;3.63;;;20.40;52.90;;;;;;5053890;28;20460;-77
2021/04/02 16:03:42;;;;;;;5.78;3.88;;;20.40;52.00;;;;;;5053101;28;20025;-75
2021/04/02 16:06:08;;;;;;;7.03;4.10;;;19.70;52.70;;;;;;5049575;28;20091;-72
2021/04/02 16:08:33;;;;;;;5.15;3.78;;;19.20;53.60;;;;;;5040722;28;20029;-73
2021/04/02 16:11:03;;;;;;;4.07;3.13;;;19.10;54.50;;;;;;5044977;28;20022;-73
2021/04/02 16:13:29;;;;;;;4.93;4.03;;;19.00;54.70;;;;;;5049454;28;20104;-72
2021/04/02 16:15:55;;;;;;;5.22;3.85;;;18.90;54.10;;;;;;5045735;28;20112;-72
2021/04/02 16:18:21;;;;;;;6.38;4.22;;;19.10;54.70;;;;;;5048962;28;20553;-73
2021/04/02 16:20:51;;;;;;;4.60;3.65;;;19.40;53.50;;;;;;5048942;28;20080;-73
2021/04/02 16:23:18;;;;;;;5.32;3.90;;;19.40;53.50;;;;;;5061230;28;20108;-73
2021/04/02 16:25:48;;;;;;;6.55;4.18;;;19.30;53.60;;;;;;5065302;28;20071;-72
2021/04/02 16:28:15;;;;;;;4.78;3.70;;;19.80;52.90;;;;;;5047605;28;20044;-72
2021/04/02 16:30:44;;;;;;;6.32;4.03;;;19.50;53.50;;;;;;5041092;28;20033;-72
2021/04/02 16:33:11;;;;;;;6.55;3.85;;;18.90;54.00;;;;;;5042220;28;20132;-72
2021/04/02 16:35:36;;;;;;;5.28;4.03;;;19.10;53.90;;;;;;5028344;28;20053;-71
2021/04/02 16:38:05;;;;;;;4.85;3.58;;;19.10;54.00;;;;;;5042439;28;20071;-72
2021/04/02 16:40:31;;;;;;;6.22;4.25;;;18.80;54.00;;;;;;5046880;28;20060;-71
2021/04/02 16:42:57;;;;;;;4.53;3.50;;;18.70;54.70;;;;;;5046377;28;20021;-74
2021/04/02 16:45:23;;;;;;;8.13;3.50;;;18.50;55.00;;;;;;5045824;28;20519;-72
2021/04/02 16:47:51;;;;;;;5.22;3.75;;;18.70;54.00;;;;;;5046660;28;20052;-71
2021/04/02 16:50:18;;;;;;;4.32;3.40;;;18.80;53.60;;;;;;5048336;28;20027;-72
2021/04/02 16:52:44;;;;;;;5.82;3.53;;;18.90;53.70;;;;;;5057069;28;20036;-71
2021/04/02 16:55:11;;;;;;;6.43;3.55;;;18.70;53.70;;;;;;5050563;28;20039;-72
2021/04/02 16:57:36;;;;;;;5.65;3.58;;;18.80;53.90;;;;;;5050730;28;20083;-71
2021/04/02 17:00:04;;;;;;;4.55;3.17;;;18.20;54.50;;;;;;5050710;28;20032;-72
2021/04/02 17:02:30;;;;;;;5.22;3.40;;;17.70;55.60;;;;;;5049985;28;20025;-73
2021/04/02 17:04:56;;;;;;;4.55;3.22;;;18.20;56.00;;;;;;5048308;28;20025;-72
2021/04/02 17:07:21;;;;;;;6.63;4.18;;;18.20;54.70;;;;;;5049928;28;20377;-73
2021/04/02 17:09:47;;;;;;;5.10;3.33;;;18.10;54.40;;;;;;5050375;28;20044;-73
2021/04/02 17:12:13;;;;;;;5.43;3.00;;;18.10;54.40;;;;;;5049752;28;20487;-72
2021/04/02 17:14:39;;;;;;;3.83;2.78;;;18.20;54.50;;;;;;5047767;28;20041;-78
2021/04/02 17:17:04;;;;;;;4.13;3.00;;;18.60;54.50;;;;;;5048142;28;20021;-74
2021/04/02 17:19:31;;;;;;;3.33;2.63;;;18.30;53.90;;;;;;5049884;28;20044;-74
2021/04/02 17:21:57;;;;;;;3.90;3.17;;;17.80;54.80;;;;;;5050162;28;20033;-72
2021/04/02 17:24:23;;;;;;;4.72;2.92;;;17.70;55.20;;;;;;5047432;28;20036;-74
2021/04/02 17:26:49;;;;;;;5.05;3.30;;;17.00;55.70;;;;;;5052846;28;20037;-75
2021/04/02 17:29:14;;;;;;;5.10;3.30;;;17.20;56.10;;;;;;5070175;28;20032;-74
2021/04/02 17:31:40;;;;;;;5.43;3.63;;;16.90;56.60;;;;;;5066813;28;20409;-75
2021/04/02 17:34:06;;;;;;;4.07;2.88;;;16.60;57.30;;;;;;5049820;28;20512;-74
2021/04/02 17:36:32;;;;;;;4.20;3.22;;;16.20;58.50;;;;;;5050557;28;20060;-75
2021/04/02 17:38:58;;;;;;;4.50;3.25;;;15.40;60.10;;;;;;5068915;28;20021;-74
2021/04/02 17:41:24;;;;;;;5.18;3.40;;;14.90;61.50;;;;;;5069923;28;20082;-74
2021/04/02 17:43:51;;;;;;;5.30;3.53;;;14.40;63.00;;;;;;5067973;28;20032;-75
2021/04/02 17:46:16;;;;;;;6.25;3.58;;;13.90;64.50;;;;;;5047649;28;20432;-74
2021/04/02 17:48:43;;;;;;;6.13;3.38;;;13.70;65.70;;;;;;5055038;28;20037;-73
2021/04/02 17:51:09;;;;;;;3.72;3.15;;;13.60;66.70;;;;;;5049582;28;20033;-72
2021/04/02 17:53:35;;;;;;;3.78;2.72;;;13.00;67.30;;;;;;5066827;28;20086;-74
2021/04/02 17:56:01;;;;;;;4.05;3.10;;;12.80;69.10;;;;;;5070426;28;20029;-71
2021/04/02 17:58:27;;;;;;;4.63;3.33;;;12.50;70.10;;;;;;5053232;28;20542;-73
2021/04/02 18:00:54;;;;;;;4.82;3.00;;;12.30;70.60;;;;;;5050580;28;20433;-73
2021/04/02 18:03:20;;;;;;;4.70;2.80;;;12.10;71.50;;;;;;5064202;28;20032;-72
2021/04/02 18:05:45;;;;;;;6.85;4.35;;;11.50;71.90;;;;;;5063745;28;20029;-75
2021/04/02 18:08:11;;;;;;;6.95;3.40;;;11.70;74.60;;;;;;5048520;28;20040;-75
2021/04/02 18:10:37;;;;;;;5.22;2.80;;;11.40;76.90;;;;;;5049717;28;20021;-76
2021/04/02 18:13:04;;;;;;;4.53;2.60;;;11.40;79.30;;;;;;5060324;28;20441;-76
2021/04/02 18:15:29;;;;;;;7.95;2.95;;;11.00;82.30;;;;;;5069887;28;20025;-75
2021/04/02 18:17:55;;;;;;;4.07;2.83;;;11.70;85.90;;;;;;5057254;28;20044;-73
2021/04/02 18:20:23;;;;;;;4.93;2.85;;;11.00;89.10;;;;;;5050447;28;20370;-76
2021/04/02 18:22:49;;;;;;;4.55;2.70;;;10.50;91.00;;;;;;5059480;28;20032;-77
2021/04/02 18:25:16;;;;;;;4.22;2.50;;;10.50;92.70;;;;;;5068486;28;20154;-75
2021/04/02 18:27:43;;;;;;;4.22;2.58;;;10.50;94.40;;;;;;5061352;28;20401;-78
2021/04/02 18:30:12;;;;;;;3.83;2.67;;;11.10;97.20;;;;;;5055015;28;20040;-78
2021/04/02 18:32:38;;;;;;;5.10;2.83;;;10.00;99.00;;;;;;5061543;28;20089;-74
2021/04/02 18:35:06;;;;;;;7.85;2.95;;;10.10;99.90;;;;;;5068824;28;20481;-75
2021/04/02 18:37:32;;;;;;;5.65;3.10;;;9.70;99.90;;;;;;5071159;28;20405;-74
2021/04/02 18:39:58;;;;;;;8.35;3.42;;;10.60;99.90;;;;;;5073188;28;20025;-74
2021/04/02 18:42:25;;;;;;;6.53;3.60;;;10.10;99.90;;;;;;5071877;28;20031;-74
2021/04/02 18:44:51;;;;;;;7.18;3.72;;;10.10;99.90;;;;;;5072938;28;20093;-74
2021/04/02 18:47:18;;;;;;;11.60;4.18;;;;;;;;;;5072858;28;20493;-74
2021/04/02 18:49:45;;;;;;;7.43;4.05;;;10.20;99.90;;;;;;5054213;28;20033;-74
2021/04/02 18:52:11;;;;;;;7.18;4.25;;;8.90;99.90;;;;;;5050812;28;20512;-74
2021/04/02 18:54:37;;;;;;;5.70;2.78;;;;;;;;;;5051150;28;20327;-74
